createdAt,value
2022-12-13T00:00:54.372Z,93.94
2022-12-13T00:03:40.814Z,93.92
2022-12-13T00:06:28.693Z,94.07
2022-12-13T00:09:16.469Z,94.22
2022-12-13T00:12:03.201Z,94.05
2022-12-13T00:14:49.909Z,93.48
2022-12-13T00:17:36.667Z,93.21
2022-12-13T00:20:23.309Z,93.20
2022-12-13T00:23:09.902Z,93.11
2022-12-13T00:25:56.227Z,93.02
2022-12-13T00:28:43.222Z,92.70
2022-12-13T00:34:40.767Z,92.87
2022-12-13T00:37:27.147Z,92.79
2022-12-13T00:40:13.692Z,92.56
2022-12-13T00:43:00.179Z,92.30
2022-12-13T00:45:46.812Z,92.58
2022-12-13T00:48:33.537Z,92.49
2022-12-13T00:51:21.087Z,92.24
2022-12-13T00:54:07.844Z,92.18
2022-12-13T00:56:54.133Z,92.13
2022-12-13T00:59:40.696Z,92.17
2022-12-13T01:02:27.203Z,91.79
2022-12-13T01:05:14.888Z,91.94
2022-12-13T01:08:06.052Z,91.93
2022-12-13T01:10:52.533Z,92.15
2022-12-13T01:13:40.433Z,92.07
2022-12-13T01:16:27.250Z,91.92
2022-12-13T01:19:13.850Z,92.05
2022-12-13T01:22:03.307Z,91.94
2022-12-13T01:24:49.982Z,91.75
2022-12-13T01:27:36.213Z,91.89
2022-12-13T01:30:24.636Z,91.67
2022-12-13T01:33:14.313Z,91.97
2022-12-13T01:36:03.270Z,91.53
2022-12-13T01:38:49.614Z,91.66
2022-12-13T01:41:36.942Z,91.58
2022-12-13T01:44:58.174Z,91.58
2022-12-13T01:47:48.879Z,91.79
2022-12-13T01:50:39.611Z,91.80
2022-12-13T01:53:31.563Z,91.99
2022-12-13T01:56:23.508Z,91.67
2022-12-13T01:59:12.563Z,91.57
2022-12-13T02:02:01.092Z,91.57
2022-12-13T02:05:06.942Z,91.60
2022-12-13T02:07:54.241Z,91.34
2022-12-13T02:10:43.135Z,91.26
2022-12-13T02:13:29.549Z,91.27
2022-12-13T02:17:00.726Z,91.16
2022-12-13T02:20:02.262Z,90.99
2022-12-13T02:23:00.755Z,90.81
2022-12-13T02:25:52.960Z,90.52
2022-12-13T02:29:08.694Z,90.57
2022-12-13T02:32:03.952Z,90.47
2022-12-13T02:35:03.477Z,90.83
2022-12-13T02:38:08.916Z,90.87
2022-12-13T02:41:04.981Z,91.00
2022-12-13T02:44:02.072Z,90.69
2022-12-13T02:47:22.152Z,90.87
2022-12-13T02:50:11.072Z,90.63
2022-12-13T02:52:58.569Z,90.61
2022-12-13T02:55:44.991Z,90.50
2022-12-13T02:58:35.922Z,90.31
2022-12-13T03:02:00.747Z,90.22
2022-12-13T03:05:23.656Z,89.80
2022-12-13T03:08:20.703Z,89.80
2022-12-13T03:11:09.762Z,90.03
2022-12-13T03:14:06.710Z,90.14
2022-12-13T03:16:55.905Z,89.88
2022-12-13T03:19:42.968Z,90.20
2022-12-13T03:22:29.311Z,90.20
2022-12-13T03:25:31.212Z,90.30
2022-12-13T03:28:19.406Z,90.23
2022-12-13T03:31:06.666Z,90.05
2022-12-13T03:33:53.186Z,90.21
2022-12-13T03:36:39.843Z,90.30
2022-12-13T03:39:26.746Z,89.91
2022-12-13T03:42:13.428Z,89.82
2022-12-13T03:44:59.924Z,89.92
2022-12-13T03:47:46.688Z,90.12
2022-12-13T03:50:34.839Z,90.33
2022-12-13T03:53:33.791Z,90.17
2022-12-13T03:56:20.553Z,90.14
2022-12-13T03:59:07.576Z,90.13
2022-12-13T04:01:54.026Z,89.84
2022-12-13T04:04:40.745Z,90.10
2022-12-13T04:07:27.375Z,90.19
2022-12-13T04:10:25.877Z,90.15
2022-12-13T04:13:31.640Z,90.25
2022-12-13T04:16:18.281Z,90.41
2022-12-13T04:19:04.943Z,90.69
2022-12-13T04:21:54.301Z,90.50
2022-12-13T04:24:41.195Z,90.76
2022-12-13T04:27:27.816Z,90.96
2022-12-13T04:30:14.835Z,90.52
2022-12-13T04:33:01.568Z,90.43
2022-12-13T04:35:48.532Z,90.42
2022-12-13T04:38:35.020Z,90.36
2022-12-13T04:41:22.412Z,90.27
2022-12-13T04:44:29.090Z,90.09
2022-12-13T04:47:17.296Z,90.26
2022-12-13T04:50:04.449Z,90.46
2022-12-13T04:52:51.299Z,90.25
2022-12-13T04:55:37.804Z,90.50
2022-12-13T04:58:24.257Z,90.56
2022-12-13T05:01:11.833Z,90.72
2022-12-13T05:03:58.173Z,90.59
2022-12-13T05:06:44.835Z,90.81
2022-12-13T05:09:31.514Z,90.61
2022-12-13T05:12:22.399Z,89.67
2022-12-13T05:15:10.138Z,89.61
2022-12-13T05:18:01.808Z,88.94
2022-12-13T05:20:56.599Z,88.94
2022-12-13T05:23:43.274Z,88.81
2022-12-13T05:26:30.115Z,89.03
2022-12-13T05:29:16.619Z,88.99
2022-12-13T05:32:04.262Z,88.97
2022-12-13T05:34:51.439Z,89.03
2022-12-13T05:37:37.897Z,89.08
2022-12-13T05:40:26.909Z,89.15
2022-12-13T05:43:22.109Z,89.24
2022-12-13T05:46:08.686Z,89.75
2022-12-13T05:48:55.287Z,89.66
2022-12-13T05:51:41.454Z,89.71
2022-12-13T05:54:27.647Z,89.52
2022-12-13T05:57:14.434Z,89.33
2022-12-13T06:00:00.976Z,88.98
2022-12-13T06:02:47.283Z,88.00
2022-12-13T06:05:34.142Z,87.91
2022-12-13T06:08:23.961Z,87.87
2022-12-13T06:11:12.491Z,87.90
2022-12-13T06:14:22.285Z,87.88
2022-12-13T06:17:09.676Z,87.62
2022-12-13T06:19:56.410Z,88.02
2022-12-13T06:22:43.208Z,87.45
2022-12-13T06:25:30.477Z,87.54
2022-12-13T06:28:18.487Z,87.62
2022-12-13T06:31:06.045Z,86.99
2022-12-13T06:33:52.992Z,86.42
2022-12-13T06:36:39.903Z,86.39
2022-12-13T06:39:26.745Z,86.50
2022-12-13T06:42:23.823Z,86.68
2022-12-13T06:45:12.421Z,86.23
2022-12-13T06:47:59.671Z,86.15
2022-12-13T06:50:46.291Z,86.15
2022-12-13T06:53:35.372Z,86.45
2022-12-13T06:56:23.063Z,86.32
2022-12-13T06:59:11.018Z,86.22
2022-12-13T07:02:03.767Z,85.98
2022-12-13T07:04:52.046Z,85.61
2022-12-13T07:07:39.208Z,85.74
2022-12-13T07:10:25.918Z,86.01
2022-12-13T07:13:12.727Z,85.76
2022-12-13T07:16:01.085Z,85.54
2022-12-13T07:18:48.418Z,85.26
2022-12-13T07:21:36.569Z,85.09
2022-12-13T07:24:23.590Z,84.71
2022-12-13T07:27:10.277Z,84.67
2022-12-13T07:29:58.111Z,84.98
2022-12-13T07:32:44.724Z,84.43
2022-12-13T07:35:37.036Z,84.30
2022-12-13T07:38:24.576Z,84.58
2022-12-13T07:41:11.771Z,84.88
2022-12-13T07:43:58.952Z,83.93
2022-12-13T07:46:45.854Z,84.14
2022-12-13T07:49:32.679Z,84.41
2022-12-13T07:52:19.744Z,83.48
2022-12-13T07:55:07.493Z,84.07
2022-12-13T07:57:54.584Z,84.41
2022-12-13T08:00:46.094Z,83.91
2022-12-13T08:03:33.303Z,83.75
2022-12-13T08:06:20.026Z,84.06
2022-12-13T08:09:06.948Z,84.32
2022-12-13T08:11:53.520Z,84.21
2022-12-13T08:14:39.975Z,84.43
2022-12-13T08:17:26.558Z,84.29
2022-12-13T08:20:13.584Z,84.58
2022-12-13T08:23:10.751Z,84.21
2022-12-13T08:25:57.874Z,84.60
2022-12-13T08:28:46.320Z,84.13
2022-12-13T08:31:34.030Z,83.38
2022-12-13T08:34:20.601Z,84.14
2022-12-13T08:37:07.441Z,84.34
2022-12-13T08:39:53.981Z,83.75
2022-12-13T08:42:40.551Z,84.14
2022-12-13T08:45:27.283Z,84.35
2022-12-13T08:48:13.704Z,84.18
2022-12-13T08:51:06.666Z,83.76
2022-12-13T08:53:53.207Z,84.02
2022-12-13T08:56:58.044Z,84.63
2022-12-13T08:59:44.628Z,84.28
2022-12-13T09:02:31.249Z,83.99
2022-12-13T09:05:32.997Z,83.87
2022-12-13T09:08:24.535Z,83.71
2022-12-13T09:11:22.451Z,84.06
2022-12-13T09:14:23.587Z,83.52
2022-12-13T09:17:14.534Z,82.88
2022-12-13T09:20:28.694Z,82.83
2022-12-13T09:23:23.853Z,82.50
2022-12-13T09:26:14.951Z,82.35
2022-12-13T09:29:11.062Z,81.93
2022-12-13T09:31:58.313Z,82.12
2022-12-13T09:34:45.700Z,82.05
2022-12-13T09:37:32.647Z,81.36
2022-12-13T09:40:25.780Z,81.85
2022-12-13T09:43:31.245Z,81.47
2022-12-13T09:46:27.539Z,81.25
2022-12-13T09:49:22.960Z,81.57
2022-12-13T09:52:21.790Z,81.37
2022-12-13T09:55:21.714Z,80.74
2022-12-13T09:58:30.375Z,80.97
2022-12-13T10:01:23.432Z,80.77
2022-12-13T10:04:15.517Z,81.33
2022-12-13T10:07:05.494Z,81.51
2022-12-13T10:10:01.373Z,81.07
2022-12-13T10:12:55.826Z,80.40
2022-12-13T10:15:46.688Z,80.83
2022-12-13T10:18:36.202Z,81.35
2022-12-13T10:21:29.009Z,81.62
2022-12-13T10:24:32.736Z,81.76
2022-12-13T10:27:35.511Z,81.77
2022-12-13T10:30:28.448Z,82.28
2022-12-13T10:33:24.386Z,82.72
2022-12-13T10:36:30.231Z,83.18
2022-12-13T10:39:19.180Z,84.46
2022-12-13T10:42:13.936Z,85.03
2022-12-13T10:45:15.489Z,84.65
2022-12-13T10:48:04.418Z,84.38
2022-12-13T10:51:01.193Z,84.32
2022-12-13T10:53:49.580Z,84.09
2022-12-13T10:56:42.536Z,84.43
2022-12-13T10:59:40.211Z,84.39
2022-12-13T11:02:36.356Z,84.43
2022-12-13T11:05:36.191Z,84.18
2022-12-13T11:08:27.837Z,83.62
2022-12-13T11:11:18.635Z,82.58
2022-12-13T11:14:05.406Z,80.85
2022-12-13T11:16:57.625Z,80.92
2022-12-13T11:19:47.503Z,80.80
2022-12-13T11:22:37.673Z,80.77
2022-12-13T11:25:27.048Z,79.57
2022-12-13T11:28:32.046Z,79.37
2022-12-13T11:31:40.471Z,80.01
2022-12-13T11:34:32.911Z,80.38
2022-12-13T11:37:57.170Z,80.87
2022-12-13T11:40:49.675Z,80.94
2022-12-13T11:43:38.561Z,80.10
2022-12-13T11:46:46.349Z,80.47
2022-12-13T11:49:41.411Z,81.67
2022-12-13T11:52:39.243Z,81.84
2022-12-13T11:55:39.209Z,82.30
2022-12-13T11:58:53.909Z,82.53
2022-12-13T12:01:39.465Z,81.37
2022-12-13T12:04:35.329Z,81.30
2022-12-13T12:07:33.803Z,81.12
2022-12-13T12:10:33.667Z,81.02
2022-12-13T12:13:26.612Z,80.29
2022-12-13T12:16:31.962Z,78.92
2022-12-13T12:19:22.454Z,78.12
2022-12-13T12:22:17.730Z,73.90
2022-12-13T12:25:29.131Z,72.93
2022-12-13T12:28:44.663Z,68.95
2022-12-13T12:32:16.187Z,67.31
2022-12-13T12:35:41.798Z,69.19
2022-12-13T12:38:50.966Z,71.70
2022-12-13T12:41:52.977Z,73.09
2022-12-13T12:44:51.423Z,73.59
2022-12-13T12:55:36.311Z,74.41
2022-12-13T12:58:46.339Z,69.75
2022-12-13T13:01:52.201Z,63.88
2022-12-13T13:04:45.836Z,63.24
2022-12-13T13:07:40.581Z,63.41
2022-12-13T13:10:27.706Z,63.65
2022-12-13T13:13:51.739Z,67.96
2022-12-13T13:16:40.255Z,69.28
2022-12-13T13:19:31.232Z,70.50
2022-12-13T13:22:44.242Z,71.03
2022-12-13T13:25:43.928Z,73.75
2022-12-13T13:28:40.423Z,75.30
2022-12-13T13:31:27.761Z,75.85
2022-12-13T13:34:23.491Z,76.44
2022-12-13T13:37:23.381Z,76.59
2022-12-13T13:40:30.171Z,77.56
2022-12-13T13:43:32.508Z,78.48
2022-12-13T13:46:19.741Z,78.88
2022-12-13T13:49:11.698Z,79.77
2022-12-13T13:52:30.216Z,80.18
2022-12-13T13:55:41.787Z,80.95
2022-12-13T13:58:56.491Z,81.66
2022-12-13T14:02:19.274Z,82.00
2022-12-13T14:05:43.624Z,82.28
2022-12-13T14:09:04.580Z,82.28
2022-12-13T14:12:28.342Z,82.33
2022-12-13T14:15:49.145Z,82.81
2022-12-13T14:19:04.948Z,82.67
2022-12-13T14:22:06.402Z,83.16
2022-12-13T14:25:23.693Z,83.86
2022-12-13T14:28:22.062Z,84.01
2022-12-13T14:31:22.093Z,84.13
2022-12-13T14:34:19.971Z,84.53
2022-12-13T14:37:30.533Z,84.45
2022-12-13T14:40:54.683Z,84.62
2022-12-13T14:43:45.606Z,84.31
2022-12-13T14:46:35.085Z,84.78
2022-12-13T14:49:23.975Z,84.59
2022-12-13T14:52:39.627Z,84.75
2022-12-13T14:55:30.376Z,84.78
2022-12-13T14:58:20.980Z,85.13
2022-12-13T15:01:31.076Z,85.11
2022-12-13T15:04:30.729Z,85.22
2022-12-13T15:07:27.137Z,85.41
2022-12-13T15:10:37.960Z,85.82
2022-12-13T15:13:24.987Z,85.70
2022-12-13T15:16:27.308Z,86.10
2022-12-13T15:19:31.189Z,86.06
2022-12-13T15:22:19.347Z,86.09
2022-12-13T15:25:06.316Z,86.27
2022-12-13T15:27:55.059Z,86.04
2022-12-13T15:30:41.841Z,85.95
2022-12-13T15:33:35.267Z,86.01
2022-12-13T15:36:27.340Z,86.12
2022-12-13T15:39:18.269Z,86.06
2022-12-13T15:42:06.462Z,86.15
2022-12-13T15:44:59.450Z,86.36
2022-12-13T15:47:46.923Z,86.25
2022-12-13T15:50:45.466Z,86.42
2022-12-13T15:53:37.721Z,86.74
2022-12-13T15:56:29.893Z,86.54
2022-12-13T15:59:32.638Z,86.49
2022-12-13T16:02:24.832Z,86.37
2022-12-13T16:05:31.490Z,86.30
2022-12-13T16:08:30.462Z,86.89
2022-12-13T16:11:30.723Z,86.81
2022-12-13T16:14:49.674Z,87.05
2022-12-13T16:17:36.340Z,87.25
2022-12-13T16:20:23.779Z,87.23
2022-12-13T16:23:10.445Z,87.05
2022-12-13T16:26:13.977Z,86.92
2022-12-13T16:29:00.634Z,86.72
2022-12-13T16:31:47.872Z,86.71
2022-12-13T16:34:34.706Z,86.76
2022-12-13T16:37:27.533Z,86.60
2022-12-13T16:40:28.612Z,86.45
2022-12-13T16:43:18.351Z,85.80
2022-12-13T16:47:13.327Z,86.05
2022-12-13T16:49:25.168Z,86.02
2022-12-13T16:52:11.613Z,85.58
2022-12-13T16:55:00.628Z,85.57
2022-12-13T16:58:17.442Z,85.70
2022-12-13T17:01:12.431Z,85.77
2022-12-13T17:03:58.898Z,86.07
2022-12-13T17:06:46.233Z,85.76
2022-12-13T17:09:35.054Z,85.52
2022-12-13T17:12:21.451Z,85.43
2022-12-13T17:15:09.468Z,85.56
2022-12-13T17:17:56.335Z,85.57
2022-12-13T17:20:42.604Z,85.40
2022-12-13T17:23:30.300Z,85.60
2022-12-13T17:26:17.338Z,84.98
2022-12-13T17:29:05.322Z,85.13
2022-12-13T17:31:53.341Z,84.81
2022-12-13T17:34:40.386Z,84.89
2022-12-13T17:37:26.484Z,84.87
2022-12-13T17:40:13.014Z,85.07
2022-12-13T17:42:59.471Z,84.90
2022-12-13T17:45:46.034Z,85.01
2022-12-13T17:48:39.783Z,85.11
2022-12-13T17:51:27.600Z,84.82
2022-12-13T17:54:14.193Z,84.92
2022-12-13T17:57:02.636Z,85.43
2022-12-13T17:59:49.504Z,85.08
2022-12-13T18:02:39.423Z,85.35
2022-12-13T18:05:26.285Z,85.75
2022-12-13T18:08:12.735Z,86.04
2022-12-13T18:11:30.764Z,86.03
2022-12-13T18:14:08.278Z,86.13
2022-12-13T18:16:54.587Z,86.48
2022-12-13T18:19:41.006Z,86.40
2022-12-13T18:24:39.617Z,86.72
2022-12-13T18:27:24.887Z,87.21
2022-12-13T18:30:31.924Z,87.12
2022-12-13T18:34:00.432Z,86.94
2022-12-13T18:58:32.541Z,85.52
2022-12-13T19:01:19.763Z,84.91
2022-12-13T19:07:21.400Z,85.24
2022-12-13T19:12:03.166Z,85.42
2022-12-13T19:14:54.859Z,85.60
2022-12-13T19:17:43.919Z,85.33
2022-12-13T19:20:38.357Z,85.43
2022-12-13T19:23:24.211Z,85.41
2022-12-13T19:26:13.375Z,85.70
2022-12-13T19:28:58.950Z,85.55
2022-12-13T19:31:52.861Z,85.59
2022-12-13T19:34:38.571Z,85.79
2022-12-13T19:37:44.447Z,85.75
2022-12-13T19:40:29.717Z,85.99
2022-12-13T19:43:52.937Z,85.85
2022-12-13T19:46:42.164Z,85.70
2022-12-13T19:49:27.554Z,85.93
2022-12-13T19:52:13.078Z,86.04
2022-12-13T19:54:58.708Z,86.11
2022-12-13T19:57:43.790Z,86.20
2022-12-13T20:00:29.375Z,86.23
2022-12-13T20:03:17.452Z,85.82
2022-12-13T20:06:04.531Z,85.83
2022-12-13T20:08:50.637Z,85.94
2022-12-13T20:11:37.447Z,85.72
2022-12-13T20:14:22.793Z,86.31
2022-12-13T20:17:07.897Z,86.29
2022-12-13T20:19:53.154Z,86.36
2022-12-13T20:22:48.509Z,86.57
2022-12-13T20:26:06.261Z,86.17
2022-12-13T20:29:25.265Z,86.51
2022-12-13T20:32:15.116Z,87.03
2022-12-13T20:35:01.819Z,86.99
2022-12-13T20:37:53.082Z,86.64
2022-12-13T20:40:39.567Z,86.55
2022-12-13T20:43:26.714Z,86.88
2022-12-13T20:46:16.817Z,86.74
2022-12-13T20:49:14.190Z,87.09
2022-12-13T20:52:57.170Z,87.31
2022-12-13T20:57:23.196Z,87.62
2022-12-13T21:03:15.799Z,88.17
2022-12-13T21:06:02.316Z,88.35
2022-12-13T21:08:51.459Z,88.60
2022-12-13T21:11:46.920Z,89.06
2022-12-13T21:14:34.367Z,89.05
2022-12-13T21:17:21.160Z,89.00
2022-12-13T21:20:08.213Z,88.97
2022-12-13T21:22:55.065Z,88.93
2022-12-13T21:25:41.695Z,89.27
2022-12-13T21:32:55.487Z,89.79
2022-12-13T21:35:41.784Z,90.46
2022-12-13T21:38:29.544Z,90.61
2022-12-13T21:41:18.959Z,90.56
2022-12-13T21:44:05.924Z,90.49
2022-12-13T21:48:13.917Z,90.74
2022-12-13T21:51:01.236Z,91.07
2022-12-13T21:53:52.090Z,90.87
2022-12-13T21:56:57.030Z,91.30
2022-12-13T21:59:43.434Z,91.33
2022-12-13T22:02:29.973Z,91.21
2022-12-13T22:05:16.929Z,91.58
2022-12-13T22:08:03.670Z,91.51
2022-12-13T22:12:41.556Z,91.66
2022-12-13T22:15:28.053Z,92.03
2022-12-13T22:18:35.091Z,92.33
2022-12-13T22:21:23.547Z,92.25
2022-12-13T22:24:13.695Z,92.27
2022-12-13T22:27:26.322Z,92.16
2022-12-13T22:30:13.117Z,92.64
2022-12-13T22:32:59.858Z,92.28
2022-12-13T22:35:46.288Z,92.36
2022-12-13T22:38:33.123Z,92.34
2022-12-13T22:41:19.659Z,91.77
2022-12-13T22:44:05.945Z,92.03
2022-12-13T22:46:52.636Z,92.26
2022-12-13T22:51:58.600Z,92.31
2022-12-13T22:54:45.107Z,92.54
2022-12-13T22:57:56.797Z,92.70
2022-12-13T23:00:43.573Z,92.81
2022-12-13T23:03:30.299Z,92.89
2022-12-13T23:08:54.429Z,93.30
2022-12-13T23:12:00.427Z,93.66
2022-12-13T23:14:47.183Z,93.72
2022-12-13T23:17:33.781Z,93.58
2022-12-13T23:20:20.383Z,93.63
2022-12-13T23:23:07.066Z,93.51
2022-12-13T23:25:53.593Z,93.19
2022-12-13T23:28:40.655Z,92.99
2022-12-13T23:31:30.541Z,92.83
2022-12-13T23:34:19.109Z,92.51
2022-12-13T23:37:05.678Z,92.53
2022-12-13T23:39:52.489Z,92.41
2022-12-13T23:42:39.177Z,92.31
2022-12-13T23:45:26.791Z,92.35
2022-12-13T23:48:13.294Z,92.20
2022-12-13T23:51:00.860Z,92.28
2022-12-13T23:53:47.545Z,92.08
2022-12-13T23:56:34.166Z,92.03
2022-12-13T23:59:22.951Z,92.41
